Portada
METAR-TAF:

METAR-TAF

Aeroports :

Jordan Airport

Jordan, Montana, Estats Units d'Amèrica

latitud: 47-19-33N, longitud: 106-56-51W, altitud: 811 m

Observació

L'informe es va fer fa 1 hora i 6 minuts, a les 04:48 UTC
Vent calma
Temperatura 11°C
Humitat 62%
Pressió 1011 hPa

METAR: KJDN 040448Z AUTO 00000KT 11/04 A2986 RMK AO1 SLP105 T01110044

Hora: 23:54 (05:54 UTC)


TAF: manca

Observacions i pronòstics meteorològics de més de 4000 aeroports (METAR i TAF).

Les estacions disponibles són els punts grocs i vermells al mapa.

Posi el ratolí al punt desitjat per veure el nom de l'estació.

Feu clic per veure les observacions i els pronòstics meteorològics.

Per canviar el mapa: feu clic els botons verds amb una creu de color negre per apropar; al botó verd amb un guió per allunyar la imatge; o en les fletxes verdes per a mapes adjacents.


METAR-TAF: